Главная страница
METAR-TAF:

METAR-TAF

Аэропорты :

Чорлу, Турция

широта: 41-08N, долгота: 027-55E, высота над уровнем моря: 173 м

Текущие метеонаблюдения

Эта сводка был подготовлена 38 минут назад, в 06:20 UTC
Ветер 4 Узел от восточно-юго-восточный, изменяющийся между восточно-северо-восточный и юго-юго-восточный
Температура 24°C
Влажность 78%
Давление 1013 hPa
Видимость: 8000 м
небольшая облачность на высоте 700 фута

METAR: LTBU 270620Z 11004KT 070V160 8000 FEW007 24/20 Q1013 RMK RWY23 VRB03KT

Время: 09:58 (06:58 UTC)

Прогноз

Эта сводка был подготовлена 2 часа и 18 минут назад, в 04:40 UTC
Прогноз действительный с 27-го 06 UTC до 28-го 06 UTC
Ветер 7 Узел от южный
Видимость 10 км и более
небольшая облачность на высоте 2700 фута
изменения
С 27-го 12 UTC до 27-го 16 UTC
Видимость 10 км и более
Нет облачности ниже 1500 м, и нет кучево-дождевой облачности

TAF: LTBU 270440Z 2706/2806 17007KT 9999 FEW027 BECMG 2712/2716 CAVOK

Метеонаблюдения и прогнозы для более 4000 аэропортов (сводки METAR и TAF).

Имеющиеся станции представлены на карте желтыми и красными точками.

Чтобы увидеть название станции, наведите на нее мышь.

Затем щелкните, чтобы увидеть метеонаблюдения и метеопрогнозы.

Управление картой: чтобы увеличить масштаб, щелкните зеленые кнопки с черным крестиком; чтобы уменьшить масштаб, щелкните зеленую кнопку с тире; для просмотра соседних карт щелкайте зеленые стрелки.


METAR-TAF: